createdAt,value
2023-04-25T00:03:43.475Z,7.20
2023-04-25T00:13:36.992Z,10.75
2023-04-25T00:18:36.755Z,12.60
2023-04-25T00:23:39.890Z,15.07
2023-04-25T00:28:36.488Z,13.75
2023-04-25T00:33:35.714Z,13.20
2023-04-25T00:38:32.634Z,15.32
2023-04-25T00:43:29.221Z,18.30
2023-04-25T00:48:26.163Z,18.23
2023-04-25T00:53:23.267Z,16.50
2023-04-25T00:58:21.093Z,20.35
2023-04-25T01:03:18.813Z,18.15
2023-04-25T01:08:18.341Z,22.10
2023-04-25T01:13:14.800Z,18.23
2023-04-25T01:18:11.627Z,15.60
2023-04-25T01:28:04.545Z,18.52
2023-04-25T01:33:01.450Z,20.00
2023-04-25T01:38:00.190Z,20.73
2023-04-25T01:42:56.695Z,22.23
2023-04-25T01:47:53.453Z,22.83
2023-04-25T01:52:50.232Z,19.73
2023-04-25T01:57:46.859Z,22.35
2023-04-25T02:02:43.643Z,19.80
2023-04-25T02:12:37.011Z,22.23
2023-04-25T02:22:31.392Z,18.60
2023-04-25T02:27:27.928Z,26.42
2023-04-25T02:32:26.789Z,26.35
2023-04-25T02:37:24.219Z,18.88
2023-04-25T02:42:20.707Z,24.38
2023-04-25T02:47:17.291Z,24.10
2023-04-25T02:52:13.934Z,22.90
2023-04-25T02:57:10.509Z,20.35
2023-04-25T03:02:07.161Z,25.60
2023-04-25T03:07:03.628Z,21.45
2023-04-25T03:12:00.148Z,16.48
2023-04-25T03:16:56.786Z,18.17
2023-04-25T03:21:56.790Z,19.75
2023-04-25T03:26:53.383Z,19.45
2023-04-25T03:31:50.034Z,18.42
2023-04-25T03:44:10.418Z,17.17
2023-04-25T03:49:07.074Z,16.02
2023-04-25T03:54:03.579Z,15.48
2023-04-25T03:59:00.193Z,15.68
2023-04-25T04:03:57.149Z,16.40
2023-04-25T04:08:57.395Z,20.20
2023-04-25T04:14:07.667Z,16.45
2023-04-25T04:19:13.425Z,19.15
2023-04-25T04:24:17.414Z,17.40
2023-04-25T04:29:57.668Z,16.85
2023-04-25T04:34:58.078Z,15.10
2023-04-25T04:39:54.632Z,16.48
2023-04-25T06:14:29.569Z,13.82
2023-04-25T08:29:22.317Z,9.88
2023-04-25T14:44:04.892Z,13.57
2023-04-25T14:49:01.901Z,6.00
2023-04-25T14:53:59.035Z,9.23
2023-04-25T15:11:48.915Z,11.35
2023-04-25T15:16:45.610Z,10.00
2023-04-25T16:04:28.451Z,9.45
2023-04-25T18:05:24.387Z,15.57
2023-04-25T18:10:21.183Z,11.07
2023-04-25T18:15:18.218Z,7.60
2023-04-25T18:20:15.769Z,9.10
2023-04-25T18:25:13.776Z,8.60
2023-04-25T18:30:11.393Z,13.68
2023-04-25T18:35:11.308Z,10.52
2023-04-25T19:50:54.951Z,10.63
2023-04-25T19:55:56.805Z,9.32
2023-04-25T20:00:55.924Z,8.30
2023-04-25T20:05:58.266Z,7.95
2023-04-25T20:10:57.686Z,10.05
2023-04-25T20:15:54.231Z,10.23
2023-04-25T20:20:51.713Z,9.18
2023-04-25T20:25:48.495Z,9.30
2023-04-25T20:30:46.241Z,12.10
2023-04-25T20:35:42.756Z,12.02
2023-04-25T20:40:39.214Z,8.88
2023-04-25T20:45:37.455Z,10.52
2023-04-25T20:50:34.200Z,8.63
2023-04-25T20:55:30.857Z,7.25
2023-04-25T21:00:29.118Z,10.98
2023-04-25T21:05:25.670Z,10.48
2023-04-25T21:10:22.219Z,9.05
2023-04-25T21:15:21.167Z,9.73
2023-04-25T21:20:21.719Z,7.15
2023-04-25T21:25:20.574Z,10.20
2023-04-25T21:30:23.379Z,9.10
2023-04-25T21:35:21.774Z,7.65
2023-04-25T21:40:18.288Z,9.25
2023-04-25T21:45:14.771Z,7.47
2023-04-25T21:50:11.342Z,11.40
2023-04-25T21:55:09.474Z,8.95
2023-04-25T22:00:19.987Z,8.70
2023-04-25T22:05:23.200Z,7.55
2023-04-25T22:10:21.426Z,6.78
2023-04-25T22:15:19.402Z,6.03
2023-04-25T22:20:16.036Z,6.93
2023-04-25T22:25:12.582Z,5.72
2023-04-25T22:30:10.929Z,9.13
2023-04-25T22:35:07.979Z,5.78
2023-04-25T22:45:08.195Z,5.75
2023-04-25T22:50:07.740Z,5.97
2023-04-25T22:55:04.707Z,9.32
2023-04-25T23:05:00.022Z,3.85
2023-04-25T23:09:56.722Z,6.40
2023-04-25T23:14:53.615Z,6.85
2023-04-25T23:19:50.313Z,7.03
2023-04-25T23:24:49.206Z,12.57
2023-04-25T23:29:54.471Z,6.68
2023-04-25T23:34:51.123Z,9.95
2023-04-25T23:39:50.459Z,11.43
2023-04-25T23:44:47.004Z,16.20
2023-04-25T23:49:43.868Z,8.20
2023-04-25T23:54:40.427Z,7.95
2023-04-25T23:59:36.912Z,9.27
